sensor_id;sensor_type;location;lat;lon;timestamp;temperature;humidity
65188;SHT30;51775;51.148;6.950;2023-06-10T00:01:17;23.84;48.06
65188;SHT30;51775;51.148;6.950;2023-06-10T00:03:43;23.84;48.15
65188;SHT30;51775;51.148;6.950;2023-06-10T00:06:08;23.81;48.23
65188;SHT30;51775;51.148;6.950;2023-06-10T00:08:33;23.79;48.08
65188;SHT30;51775;51.148;6.950;2023-06-10T00:10:58;23.76;48.09
65188;SHT30;51775;51.148;6.950;2023-06-10T00:13:24;23.75;48.31
65188;SHT30;51775;51.148;6.950;2023-06-10T00:15:49;23.74;48.09
65188;SHT30;51775;51.148;6.950;2023-06-10T00:18:14;23.72;48.23
65188;SHT30;51775;51.148;6.950;2023-06-10T00:20:40;23.72;48.19
65188;SHT30;51775;51.148;6.950;2023-06-10T00:23:05;23.68;48.28
65188;SHT30;51775;51.148;6.950;2023-06-10T00:25:30;23.67;48.44
65188;SHT30;51775;51.148;6.950;2023-06-10T00:27:55;23.65;48.32
65188;SHT30;51775;51.148;6.950;2023-06-10T00:30:21;23.64;48.36
65188;SHT30;51775;51.148;6.950;2023-06-10T00:32:46;23.64;48.45
65188;SHT30;51775;51.148;6.950;2023-06-10T00:35:11;23.59;48.12
65188;SHT30;51775;51.148;6.950;2023-06-10T00:37:37;23.59;48.26
65188;SHT30;51775;51.148;6.950;2023-06-10T00:40:03;23.57;48.44
65188;SHT30;51775;51.148;6.950;2023-06-10T00:42:28;23.55;48.34
65188;SHT30;51775;51.148;6.950;2023-06-10T00:44:54;23.54;48.64
65188;SHT30;51775;51.148;6.950;2023-06-10T00:47:20;23.53;48.57
65188;SHT30;51775;51.148;6.950;2023-06-10T00:49:46;23.53;48.58
65188;SHT30;51775;51.148;6.950;2023-06-10T00:52:13;23.50;48.76
65188;SHT30;51775;51.148;6.950;2023-06-10T00:54:39;23.50;48.76
65188;SHT30;51775;51.148;6.950;2023-06-10T00:57:05;23.46;48.89
65188;SHT30;51775;51.148;6.950;2023-06-10T00:59:31;23.44;48.81
65188;SHT30;51775;51.148;6.950;2023-06-10T01:01:56;23.40;48.71
65188;SHT30;51775;51.148;6.950;2023-06-10T01:04:22;23.41;48.72
65188;SHT30;51775;51.148;6.950;2023-06-10T01:06:56;23.38;48.75
65188;SHT30;51775;51.148;6.950;2023-06-10T01:09:45;23.38;48.77
65188;SHT30;51775;51.148;6.950;2023-06-10T01:12:31;23.40;48.71
65188;SHT30;51775;51.148;6.950;2023-06-10T01:15:00;23.37;48.68
65188;SHT30;51775;51.148;6.950;2023-06-10T01:17:26;23.34;48.97
65188;SHT30;51775;51.148;6.950;2023-06-10T01:19:56;23.33;49.24
65188;SHT30;51775;51.148;6.950;2023-06-10T01:22:26;23.26;49.45
65188;SHT30;51775;51.148;6.950;2023-06-10T01:24:52;23.20;49.77
65188;SHT30;51775;51.148;6.950;2023-06-10T01:27:19;23.17;50.11
65188;SHT30;51775;51.148;6.950;2023-06-10T01:29:50;23.13;50.47
65188;SHT30;51775;51.148;6.950;2023-06-10T01:32:21;23.10;50.90
65188;SHT30;51775;51.148;6.950;2023-06-10T01:34:48;23.02;50.99
65188;SHT30;51775;51.148;6.950;2023-06-10T01:37:18;22.98;51.70
65188;SHT30;51775;51.148;6.950;2023-06-10T01:39:46;22.90;51.75
65188;SHT30;51775;51.148;6.950;2023-06-10T01:42:12;22.83;52.18
65188;SHT30;51775;51.148;6.950;2023-06-10T01:44:39;22.76;52.43
65188;SHT30;51775;51.148;6.950;2023-06-10T01:47:04;22.66;52.29
65188;SHT30;51775;51.148;6.950;2023-06-10T01:49:30;22.56;53.58
65188;SHT30;51775;51.148;6.950;2023-06-10T01:51:55;22.48;53.83
65188;SHT30;51775;51.148;6.950;2023-06-10T01:54:20;22.41;53.74
65188;SHT30;51775;51.148;6.950;2023-06-10T01:56:45;22.31;54.43
65188;SHT30;51775;51.148;6.950;2023-06-10T01:59:11;22.22;54.78
65188;SHT30;51775;51.148;6.950;2023-06-10T02:01:36;22.17;54.75
65188;SHT30;51775;51.148;6.950;2023-06-10T02:04:01;22.10;55.06
65188;SHT30;51775;51.148;6.950;2023-06-10T02:06:27;22.08;54.52
65188;SHT30;51775;51.148;6.950;2023-06-10T02:08:52;22.06;54.66
65188;SHT30;51775;51.148;6.950;2023-06-10T02:11:17;21.97;55.04
65188;SHT30;51775;51.148;6.950;2023-06-10T02:13:43;21.93;55.20
65188;SHT30;51775;51.148;6.950;2023-06-10T02:16:08;21.87;55.58
65188;SHT30;51775;51.148;6.950;2023-06-10T02:18:33;21.82;55.49
65188;SHT30;51775;51.148;6.950;2023-06-10T02:21:01;21.78;56.32
65188;SHT30;51775;51.148;6.950;2023-06-10T02:23:26;21.70;56.21
65188;SHT30;51775;51.148;6.950;2023-06-10T02:25:51;21.66;56.47
65188;SHT30;51775;51.148;6.950;2023-06-10T02:28:17;21.60;56.36
65188;SHT30;51775;51.148;6.950;2023-06-10T02:30:42;21.52;56.38
65188;SHT30;51775;51.148;6.950;2023-06-10T02:33:08;21.48;56.55
65188;SHT30;51775;51.148;6.950;2023-06-10T02:35:33;21.42;56.74
65188;SHT30;51775;51.148;6.950;2023-06-10T02:37:59;21.38;56.90
65188;SHT30;51775;51.148;6.950;2023-06-10T02:40:24;21.30;56.99
65188;SHT30;51775;51.148;6.950;2023-06-10T02:42:49;21.28;57.28
65188;SHT30;51775;51.148;6.950;2023-06-10T02:45:16;21.17;57.74
65188;SHT30;51775;51.148;6.950;2023-06-10T02:47:41;21.10;57.26
65188;SHT30;51775;51.148;6.950;2023-06-10T02:50:07;21.04;58.55
65188;SHT30;51775;51.148;6.950;2023-06-10T02:52:32;20.95;58.76
65188;SHT30;51775;51.148;6.950;2023-06-10T02:54:57;20.87;59.65
65188;SHT30;51775;51.148;6.950;2023-06-10T02:57:22;20.81;59.52
65188;SHT30;51775;51.148;6.950;2023-06-10T02:59:48;20.74;60.32
65188;SHT30;51775;51.148;6.950;2023-06-10T03:02:13;20.70;60.38
65188;SHT30;51775;51.148;6.950;2023-06-10T03:04:38;20.63;60.27
65188;SHT30;51775;51.148;6.950;2023-06-10T03:07:07;20.60;60.28
65188;SHT30;51775;51.148;6.950;2023-06-10T03:09:32;20.56;60.39
65188;SHT30;51775;51.148;6.950;2023-06-10T03:11:57;20.53;60.16
65188;SHT30;51775;51.148;6.950;2023-06-10T03:14:23;20.48;60.02
65188;SHT30;51775;51.148;6.950;2023-06-10T03:16:49;20.48;59.71
65188;SHT30;51775;51.148;6.950;2023-06-10T03:19:14;20.45;60.08
65188;SHT30;51775;51.148;6.950;2023-06-10T03:21:43;20.39;60.12
65188;SHT30;51775;51.148;6.950;2023-06-10T03:24:08;20.42;60.38
65188;SHT30;51775;51.148;6.950;2023-06-10T03:26:34;20.36;59.89
65188;SHT30;51775;51.148;6.950;2023-06-10T03:28:59;20.36;60.65
65188;SHT30;51775;51.148;6.950;2023-06-10T03:31:24;20.32;60.70
65188;SHT30;51775;51.148;6.950;2023-06-10T03:33:49;20.30;60.74
65188;SHT30;51775;51.148;6.950;2023-06-10T03:36:15;20.30;60.99
65188;SHT30;51775;51.148;6.950;2023-06-10T03:38:40;20.25;60.81
65188;SHT30;51775;51.148;6.950;2023-06-10T03:41:05;20.22;61.03
65188;SHT30;51775;51.148;6.950;2023-06-10T03:43:31;20.21;61.09
65188;SHT30;51775;51.148;6.950;2023-06-10T03:45:56;20.17;61.21
65188;SHT30;51775;51.148;6.950;2023-06-10T03:48:21;20.14;61.42
65188;SHT30;51775;51.148;6.950;2023-06-10T03:50:46;20.11;61.43
65188;SHT30;51775;51.148;6.950;2023-06-10T03:53:12;20.07;61.95
65188;SHT30;51775;51.148;6.950;2023-06-10T03:55:37;20.07;61.84
65188;SHT30;51775;51.148;6.950;2023-06-10T03:58:02;20.07;61.60
65188;SHT30;51775;51.148;6.950;2023-06-10T04:00:28;20.08;62.13
65188;SHT30;51775;51.148;6.950;2023-06-10T04:02:53;20.07;62.24
65188;SHT30;51775;51.148;6.950;2023-06-10T04:05:19;20.02;62.34
65188;SHT30;51775;51.148;6.950;2023-06-10T04:07:44;20.01;62.27
65188;SHT30;51775;51.148;6.950;2023-06-10T04:10:12;20.00;62.51
65188;SHT30;51775;51.148;6.950;2023-06-10T04:12:38;19.97;62.98
65188;SHT30;51775;51.148;6.950;2023-06-10T04:15:04;19.97;63.18
65188;SHT30;51775;51.148;6.950;2023-06-10T04:17:30;19.94;63.25
65188;SHT30;51775;51.148;6.950;2023-06-10T04:19:56;19.97;63.32
65188;SHT30;51775;51.148;6.950;2023-06-10T04:22:21;19.97;63.32
65188;SHT30;51775;51.148;6.950;2023-06-10T04:24:47;20.00;63.39
65188;SHT30;51775;51.148;6.950;2023-06-10T04:27:12;19.98;63.10
65188;SHT30;51775;51.148;6.950;2023-06-10T04:29:37;20.01;63.35
65188;SHT30;51775;51.148;6.950;2023-06-10T04:32:03;20.02;63.21
65188;SHT30;51775;51.148;6.950;2023-06-10T04:34:28;20.05;63.19
65188;SHT30;51775;51.148;6.950;2023-06-10T04:36:54;20.07;63.47
65188;SHT30;51775;51.148;6.950;2023-06-10T04:39:19;20.11;63.29
65188;SHT30;51775;51.148;6.950;2023-06-10T04:41:44;20.12;63.38
65188;SHT30;51775;51.148;6.950;2023-06-10T04:44:12;20.22;63.39
65188;SHT30;51775;51.148;6.950;2023-06-10T04:46:38;20.32;62.98
65188;SHT30;51775;51.148;6.950;2023-06-10T04:49:03;20.36;62.76
65188;SHT30;51775;51.148;6.950;2023-06-10T04:51:28;20.48;63.03
65188;SHT30;51775;51.148;6.950;2023-06-10T04:53:53;20.57;62.29
65188;SHT30;51775;51.148;6.950;2023-06-10T04:56:19;20.65;63.24
65188;SHT30;51775;51.148;6.950;2023-06-10T04:58:44;20.66;62.94
65188;SHT30;51775;51.148;6.950;2023-06-10T05:01:09;20.72;63.55
65188;SHT30;51775;51.148;6.950;2023-06-10T05:03:35;20.77;63.68
65188;SHT30;51775;51.148;6.950;2023-06-10T05:06:00;20.83;63.24
65188;SHT30;51775;51.148;6.950;2023-06-10T05:08:25;20.90;63.68
65188;SHT30;51775;51.148;6.950;2023-06-10T05:10:50;20.98;62.31
65188;SHT30;51775;51.148;6.950;2023-06-10T05:13:16;21.05;62.06
65188;SHT30;51775;51.148;6.950;2023-06-10T05:15:41;21.14;62.59
65188;SHT30;51775;51.148;6.950;2023-06-10T05:18:07;21.25;62.09
65188;SHT30;51775;51.148;6.950;2023-06-10T05:20:32;21.35;62.06
65188;SHT30;51775;51.148;6.950;2023-06-10T05:22:57;21.46;61.27
65188;SHT30;51775;51.148;6.950;2023-06-10T05:25:22;21.59;61.75
65188;SHT30;51775;51.148;6.950;2023-06-10T05:27:48;21.70;61.22
65188;SHT30;51775;51.148;6.950;2023-06-10T05:30:13;21.82;60.57
65188;SHT30;51775;51.148;6.950;2023-06-10T05:32:38;21.92;60.23
65188;SHT30;51775;51.148;6.950;2023-06-10T05:35:04;22.03;60.10
65188;SHT30;51775;51.148;6.950;2023-06-10T05:37:29;22.13;59.86
65188;SHT30;51775;51.148;6.950;2023-06-10T05:39:55;22.27;60.42
65188;SHT30;51775;51.148;6.950;2023-06-10T05:42:20;22.35;59.55
65188;SHT30;51775;51.148;6.950;2023-06-10T05:44:45;22.49;58.82
65188;SHT30;51775;51.148;6.950;2023-06-10T05:47:10;22.58;58.66
65188;SHT30;51775;51.148;6.950;2023-06-10T05:49:36;22.69;58.35
65188;SHT30;51775;51.148;6.950;2023-06-10T05:52:01;22.85;58.19
65188;SHT30;51775;51.148;6.950;2023-06-10T05:54:26;22.96;57.82
65188;SHT30;51775;51.148;6.950;2023-06-10T05:56:52;23.04;57.89
65188;SHT30;51775;51.148;6.950;2023-06-10T05:59:17;23.17;56.91
65188;SHT30;51775;51.148;6.950;2023-06-10T06:01:42;23.28;57.83
65188;SHT30;51775;51.148;6.950;2023-06-10T06:04:08;23.43;57.15
65188;SHT30;51775;51.148;6.950;2023-06-10T06:06:35;23.53;56.99
65188;SHT30;51775;51.148;6.950;2023-06-10T06:09:00;23.68;58.76
65188;SHT30;51775;51.148;6.950;2023-06-10T06:11:25;23.81;55.02
65188;SHT30;51775;51.148;6.950;2023-06-10T06:13:51;23.96;55.92
65188;SHT30;51775;51.148;6.950;2023-06-10T06:16:16;24.09;54.24
65188;SHT30;51775;51.148;6.950;2023-06-10T06:18:41;24.20;53.68
65188;SHT30;51775;51.148;6.950;2023-06-10T06:21:06;24.39;52.78
65188;SHT30;51775;51.148;6.950;2023-06-10T06:23:32;24.49;51.45
65188;SHT30;51775;51.148;6.950;2023-06-10T06:25:57;24.57;51.43
65188;SHT30;51775;51.148;6.950;2023-06-10T06:28:22;24.67;51.23
65188;SHT30;51775;51.148;6.950;2023-06-10T06:30:47;24.75;51.02
65188;SHT30;51775;51.148;6.950;2023-06-10T06:33:13;24.89;51.17
65188;SHT30;51775;51.148;6.950;2023-06-10T06:35:38;24.99;50.24
65188;SHT30;51775;51.148;6.950;2023-06-10T06:38:03;25.09;50.34
65188;SHT30;51775;51.148;6.950;2023-06-10T06:40:29;25.16;48.54
65188;SHT30;51775;51.148;6.950;2023-06-10T06:42:54;25.26;49.16
65188;SHT30;51775;51.148;6.950;2023-06-10T06:45:19;25.37;47.37
65188;SHT30;51775;51.148;6.950;2023-06-10T06:47:45;25.47;46.62
65188;SHT30;51775;51.148;6.950;2023-06-10T06:50:10;25.57;47.16
65188;SHT30;51775;51.148;6.950;2023-06-10T06:52:35;25.69;46.88
65188;SHT30;51775;51.148;6.950;2023-06-10T06:55:01;25.78;46.81
65188;SHT30;51775;51.148;6.950;2023-06-10T06:57:26;25.85;45.88
65188;SHT30;51775;51.148;6.950;2023-06-10T06:59:51;25.98;45.14
65188;SHT30;51775;51.148;6.950;2023-06-10T07:02:16;26.11;45.86
65188;SHT30;51775;51.148;6.950;2023-06-10T07:04:42;26.21;44.82
65188;SHT30;51775;51.148;6.950;2023-06-10T07:07:07;26.33;44.55
65188;SHT30;51775;51.148;6.950;2023-06-10T07:09:33;26.42;43.86
65188;SHT30;51775;51.148;6.950;2023-06-10T07:11:58;26.46;43.99
65188;SHT30;51775;51.148;6.950;2023-06-10T07:14:23;26.50;44.39
65188;SHT30;51775;51.148;6.950;2023-06-10T07:16:48;26.56;44.50
65188;SHT30;51775;51.148;6.950;2023-06-10T07:19:14;26.59;43.73
65188;SHT30;51775;51.148;6.950;2023-06-10T07:21:39;26.56;42.53
65188;SHT30;51775;51.148;6.950;2023-06-10T07:24:04;26.45;43.47
65188;SHT30;51775;51.148;6.950;2023-06-10T07:26:30;26.52;44.32
65188;SHT30;51775;51.148;6.950;2023-06-10T07:28:57;26.61;43.50
65188;SHT30;51775;51.148;6.950;2023-06-10T07:31:23;26.75;42.36
65188;SHT30;51775;51.148;6.950;2023-06-10T07:33:48;26.70;41.66
65188;SHT30;51775;51.148;6.950;2023-06-10T07:36:13;26.70;42.29
65188;SHT30;51775;51.148;6.950;2023-06-10T07:38:39;26.69;42.74
65188;SHT30;51775;51.148;6.950;2023-06-10T07:41:04;26.75;42.74
65188;SHT30;51775;51.148;6.950;2023-06-10T07:43:29;26.79;41.24
65188;SHT30;51775;51.148;6.950;2023-06-10T07:45:54;26.93;42.86
65188;SHT30;51775;51.148;6.950;2023-06-10T07:48:20;27.11;44.52
65188;SHT30;51775;51.148;6.950;2023-06-10T07:50:45;27.30;40.52
65188;SHT30;51775;51.148;6.950;2023-06-10T07:53:10;27.37;42.07
65188;SHT30;51775;51.148;6.950;2023-06-10T07:55:36;27.48;40.57
65188;SHT30;51775;51.148;6.950;2023-06-10T07:58:01;27.51;41.17
65188;SHT30;51775;51.148;6.950;2023-06-10T08:00:26;27.45;40.29
65188;SHT30;51775;51.148;6.950;2023-06-10T08:02:51;27.41;41.57
65188;SHT30;51775;51.148;6.950;2023-06-10T08:05:17;27.39;41.03
65188;SHT30;51775;51.148;6.950;2023-06-10T08:07:42;27.39;42.17
65188;SHT30;51775;51.148;6.950;2023-06-10T08:10:08;27.45;40.72
65188;SHT30;51775;51.148;6.950;2023-06-10T08:12:34;26.64;45.46
65188;SHT30;51775;51.148;6.950;2023-06-10T08:15:00;24.68;51.67
65188;SHT30;51775;51.148;6.950;2023-06-10T08:17:25;24.39;52.70
65188;SHT30;51775;51.148;6.950;2023-06-10T08:19:50;24.29;53.15
65188;SHT30;51775;51.148;6.950;2023-06-10T08:22:16;24.24;53.61
65188;SHT30;51775;51.148;6.950;2023-06-10T08:24:41;24.17;53.46
65188;SHT30;51775;51.148;6.950;2023-06-10T08:27:07;24.14;53.57
65188;SHT30;51775;51.148;6.950;2023-06-10T08:29:32;24.10;53.63
65188;SHT30;51775;51.148;6.950;2023-06-10T08:31:58;24.10;53.67
65188;SHT30;51775;51.148;6.950;2023-06-10T08:34:23;24.08;53.81
65188;SHT30;51775;51.148;6.950;2023-06-10T08:36:49;24.03;53.93
65188;SHT30;51775;51.148;6.950;2023-06-10T08:39:15;24.06;53.87
65188;SHT30;51775;51.148;6.950;2023-06-10T08:41:58;24.08;54.28
65188;SHT30;51775;51.148;6.950;2023-06-10T08:44:29;24.05;54.43
65188;SHT30;51775;51.148;6.950;2023-06-10T08:46:59;24.09;54.42
65188;SHT30;51775;51.148;6.950;2023-06-10T08:49:26;24.10;54.58
65188;SHT30;51775;51.148;6.950;2023-06-10T08:51:55;24.12;54.68
65188;SHT30;51775;51.148;6.950;2023-06-10T08:54:25;24.13;54.84
65188;SHT30;51775;51.148;6.950;2023-06-10T08:56:54;24.16;54.67
65188;SHT30;51775;51.148;6.950;2023-06-10T08:59:21;24.16;54.98
65188;SHT30;51775;51.148;6.950;2023-06-10T09:01:47;24.19;54.92
65188;SHT30;51775;51.148;6.950;2023-06-10T09:04:13;24.19;54.86
65188;SHT30;51775;51.148;6.950;2023-06-10T09:06:40;24.23;55.54
65188;SHT30;51775;51.148;6.950;2023-06-10T09:09:06;24.20;55.39
65188;SHT30;51775;51.148;6.950;2023-06-10T09:11:32;24.22;55.46
65188;SHT30;51775;51.148;6.950;2023-06-10T09:13:57;24.22;55.35
65188;SHT30;51775;51.148;6.950;2023-06-10T09:16:24;24.22;55.40
65188;SHT30;51775;51.148;6.950;2023-06-10T09:18:49;24.23;55.34
65188;SHT30;51775;51.148;6.950;2023-06-10T09:21:15;24.23;55.45
65188;SHT30;51775;51.148;6.950;2023-06-10T09:23:40;24.24;55.42
65188;SHT30;51775;51.148;6.950;2023-06-10T09:26:08;24.26;55.43
65188;SHT30;51775;51.148;6.950;2023-06-10T09:28:34;24.26;55.57
65188;SHT30;51775;51.148;6.950;2023-06-10T09:31:04;24.27;55.52
65188;SHT30;51775;51.148;6.950;2023-06-10T09:33:29;24.27;54.89
65188;SHT30;51775;51.148;6.950;2023-06-10T09:35:54;24.29;55.53
65188;SHT30;51775;51.148;6.950;2023-06-10T09:38:21;24.29;55.15
65188;SHT30;51775;51.148;6.950;2023-06-10T09:40:51;24.29;55.47
65188;SHT30;51775;51.148;6.950;2023-06-10T09:43:17;24.30;55.55
65188;SHT30;51775;51.148;6.950;2023-06-10T09:45:42;24.30;55.58
65188;SHT30;51775;51.148;6.950;2023-06-10T09:48:07;24.29;55.19
65188;SHT30;51775;51.148;6.950;2023-06-10T09:50:33;24.29;55.13
65188;SHT30;51775;51.148;6.950;2023-06-10T09:52:59;24.32;55.41
65188;SHT30;51775;51.148;6.950;2023-06-10T09:55:24;24.26;54.58
65188;SHT30;51775;51.148;6.950;2023-06-10T09:57:53;24.27;55.14
65188;SHT30;51775;51.148;6.950;2023-06-10T10:00:19;24.26;55.45
65188;SHT30;51775;51.148;6.950;2023-06-10T10:02:51;24.26;55.40
65188;SHT30;51775;51.148;6.950;2023-06-10T10:05:18;24.24;55.43
65188;SHT30;51775;51.148;6.950;2023-06-10T10:07:45;24.26;55.44
65188;SHT30;51775;51.148;6.950;2023-06-10T10:10:11;24.23;55.06
65188;SHT30;51775;51.148;6.950;2023-06-10T10:12:40;24.19;54.20
65188;SHT30;51775;51.148;6.950;2023-06-10T10:15:07;24.20;54.29
65188;SHT30;51775;51.148;6.950;2023-06-10T10:17:34;24.20;55.05
65188;SHT30;51775;51.148;6.950;2023-06-10T10:20:04;24.19;55.56
65188;SHT30;51775;51.148;6.950;2023-06-10T10:22:36;24.17;55.14
65188;SHT30;51775;51.148;6.950;2023-06-10T10:25:16;24.17;54.28
65188;SHT30;51775;51.148;6.950;2023-06-10T10:27:50;24.14;54.13
65188;SHT30;51775;51.148;6.950;2023-06-10T10:30:20;24.17;54.05
65188;SHT30;51775;51.148;6.950;2023-06-10T10:35:49;24.16;55.92
65188;SHT30;51775;51.148;6.950;2023-06-10T10:38:16;24.14;54.26
65188;SHT30;51775;51.148;6.950;2023-06-10T10:40:42;24.16;55.93
65188;SHT30;51775;51.148;6.950;2023-06-10T10:43:09;24.13;54.61
65188;SHT30;51775;51.148;6.950;2023-06-10T10:45:35;26.18;45.30
65188;SHT30;51775;51.148;6.950;2023-06-10T10:48:07;26.67;46.99
65188;SHT30;51775;51.148;6.950;2023-06-10T10:50:33;27.00;44.14
65188;SHT30;51775;51.148;6.950;2023-06-10T10:53:00;27.38;43.46
65188;SHT30;51775;51.148;6.950;2023-06-10T10:55:26;25.36;52.16
65188;SHT30;51775;51.148;6.950;2023-06-10T10:57:56;24.63;54.29
65188;SHT30;51775;51.148;6.950;2023-06-10T11:00:30;24.46;54.99
65188;SHT30;51775;51.148;6.950;2023-06-10T11:05:47;24.37;55.12
65188;SHT30;51775;51.148;6.950;2023-06-10T11:08:12;24.44;55.69
65188;SHT30;51775;51.148;6.950;2023-06-10T11:10:39;24.63;55.07
65188;SHT30;51775;51.148;6.950;2023-06-10T11:13:09;24.36;55.38
65188;SHT30;51775;51.148;6.950;2023-06-10T11:15:45;24.37;55.95
65188;SHT30;51775;51.148;6.950;2023-06-10T11:18:21;24.36;56.04
65188;SHT30;51775;51.148;6.950;2023-06-10T11:23:39;24.33;56.08
65188;SHT30;51775;51.148;6.950;2023-06-10T11:31:24;24.34;56.03
65188;SHT30;51775;51.148;6.950;2023-06-10T11:33:53;24.34;56.08
65188;SHT30;51775;51.148;6.950;2023-06-10T11:36:19;24.34;56.01
65188;SHT30;51775;51.148;6.950;2023-06-10T11:38:44;24.37;55.95
65188;SHT30;51775;51.148;6.950;2023-06-10T11:41:11;24.30;56.36
65188;SHT30;51775;51.148;6.950;2023-06-10T11:43:45;24.30;56.10
65188;SHT30;51775;51.148;6.950;2023-06-10T11:46:12;24.29;56.54
65188;SHT30;51775;51.148;6.950;2023-06-10T11:48:37;24.29;56.35
65188;SHT30;51775;51.148;6.950;2023-06-10T11:51:07;24.26;56.64
65188;SHT30;51775;51.148;6.950;2023-06-10T11:53:32;24.27;56.56
65188;SHT30;51775;51.148;6.950;2023-06-10T11:55:58;24.26;56.53
65188;SHT30;51775;51.148;6.950;2023-06-10T11:58:23;24.29;55.50
65188;SHT30;51775;51.148;6.950;2023-06-10T12:00:53;24.32;56.18
65188;SHT30;51775;51.148;6.950;2023-06-10T12:03:20;24.27;56.13
65188;SHT30;51775;51.148;6.950;2023-06-10T12:05:59;24.29;55.67
65188;SHT30;51775;51.148;6.950;2023-06-10T12:08:24;24.27;54.62
65188;SHT30;51775;51.148;6.950;2023-06-10T12:10:50;24.24;56.39
65188;SHT30;51775;51.148;6.950;2023-06-10T12:13:15;24.24;55.09
65188;SHT30;51775;51.148;6.950;2023-06-10T12:15:41;24.26;55.89
65188;SHT30;51775;51.148;6.950;2023-06-10T12:18:06;24.26;55.90
65188;SHT30;51775;51.148;6.950;2023-06-10T12:20:32;24.26;55.65
65188;SHT30;51775;51.148;6.950;2023-06-10T12:22:58;24.26;55.32
65188;SHT30;51775;51.148;6.950;2023-06-10T12:25:27;24.26;55.69
65188;SHT30;51775;51.148;6.950;2023-06-10T12:27:58;24.29;56.04
65188;SHT30;51775;51.148;6.950;2023-06-10T12:30:25;24.29;56.26
65188;SHT30;51775;51.148;6.950;2023-06-10T12:32:51;24.27;55.94
65188;SHT30;51775;51.148;6.950;2023-06-10T12:35:18;24.29;55.69
65188;SHT30;51775;51.148;6.950;2023-06-10T12:38:04;24.30;55.38
65188;SHT30;51775;51.148;6.950;2023-06-10T12:40:33;24.34;54.75
65188;SHT30;51775;51.148;6.950;2023-06-10T12:42:59;24.34;54.91
65188;SHT30;51775;51.148;6.950;2023-06-10T12:45:32;26.48;44.33
65188;SHT30;51775;51.148;6.950;2023-06-10T12:48:12;25.25;51.78
65188;SHT30;51775;51.148;6.950;2023-06-10T12:50:39;24.85;53.01
65188;SHT30;51775;51.148;6.950;2023-06-10T12:53:05;24.63;54.02
65188;SHT30;51775;51.148;6.950;2023-06-10T12:55:31;24.57;53.90
65188;SHT30;51775;51.148;6.950;2023-06-10T12:57:56;24.53;54.10
65188;SHT30;51775;51.148;6.950;2023-06-10T13:00:21;24.54;54.16
65188;SHT30;51775;51.148;6.950;2023-06-10T13:02:48;24.50;54.50
65188;SHT30;51775;51.148;6.950;2023-06-10T13:05:14;24.51;55.36
65188;SHT30;51775;51.148;6.950;2023-06-10T13:07:39;24.53;55.58
65188;SHT30;51775;51.148;6.950;2023-06-10T13:10:04;24.53;55.68
65188;SHT30;51775;51.148;6.950;2023-06-10T13:12:30;24.56;53.85
65188;SHT30;51775;51.148;6.950;2023-06-10T13:14:55;24.56;55.84
65188;SHT30;51775;51.148;6.950;2023-06-10T13:17:21;24.56;55.55
65188;SHT30;51775;51.148;6.950;2023-06-10T13:19:46;24.56;55.79
65188;SHT30;51775;51.148;6.950;2023-06-10T13:22:11;24.57;54.51
65188;SHT30;51775;51.148;6.950;2023-06-10T13:24:39;24.61;56.17
65188;SHT30;51775;51.148;6.950;2023-06-10T13:27:04;24.60;56.24
65188;SHT30;51775;51.148;6.950;2023-06-10T13:29:30;24.63;56.46
65188;SHT30;51775;51.148;6.950;2023-06-10T13:31:55;24.64;56.93
65188;SHT30;51775;51.148;6.950;2023-06-10T13:34:20;24.64;56.74
65188;SHT30;51775;51.148;6.950;2023-06-10T13:36:45;24.64;56.64
65188;SHT30;51775;51.148;6.950;2023-06-10T13:39:11;24.64;56.75
65188;SHT30;51775;51.148;6.950;2023-06-10T13:41:36;24.68;56.96
65188;SHT30;51775;51.148;6.950;2023-06-10T13:44:02;24.64;56.87
65188;SHT30;51775;51.148;6.950;2023-06-10T13:46:27;24.64;56.75
65188;SHT30;51775;51.148;6.950;2023-06-10T13:48:52;24.65;57.15
65188;SHT30;51775;51.148;6.950;2023-06-10T13:51:17;24.64;56.80
65188;SHT30;51775;51.148;6.950;2023-06-10T13:53:43;24.63;56.07
65188;SHT30;51775;51.148;6.950;2023-06-10T13:56:08;24.65;57.19
65188;SHT30;51775;51.148;6.950;2023-06-10T13:58:33;24.67;57.31
65188;SHT30;51775;51.148;6.950;2023-06-10T14:00:59;24.70;57.58
65188;SHT30;51775;51.148;6.950;2023-06-10T14:03:24;24.65;57.28
65188;SHT30;51775;51.148;6.950;2023-06-10T14:05:49;24.64;56.41
65188;SHT30;51775;51.148;6.950;2023-06-10T14:08:14;24.75;55.72
65188;SHT30;51775;51.148;6.950;2023-06-10T14:10:40;24.72;57.73
65188;SHT30;51775;51.148;6.950;2023-06-10T14:13:05;24.72;57.92
65188;SHT30;51775;51.148;6.950;2023-06-10T14:15:30;24.72;57.81
65188;SHT30;51775;51.148;6.950;2023-06-10T14:17:55;24.68;56.84
65188;SHT30;51775;51.148;6.950;2023-06-10T14:20:21;24.74;58.05
65188;SHT30;51775;51.148;6.950;2023-06-10T14:22:46;24.77;58.29
65188;SHT30;51775;51.148;6.950;2023-06-10T14:25:12;24.81;58.21
65188;SHT30;51775;51.148;6.950;2023-06-10T14:27:37;24.81;58.05
65188;SHT30;51775;51.148;6.950;2023-06-10T14:30:02;24.78;58.25
65188;SHT30;51775;51.148;6.950;2023-06-10T14:32:28;24.74;56.84
65188;SHT30;51775;51.148;6.950;2023-06-10T14:34:53;24.75;57.13
65188;SHT30;51775;51.148;6.950;2023-06-10T14:37:18;24.75;57.88
65188;SHT30;51775;51.148;6.950;2023-06-10T14:39:43;24.77;58.03
65188;SHT30;51775;51.148;6.950;2023-06-10T14:42:09;24.78;57.87
65188;SHT30;51775;51.148;6.950;2023-06-10T14:44:34;24.78;57.41
65188;SHT30;51775;51.148;6.950;2023-06-10T14:46:59;24.77;57.36
65188;SHT30;51775;51.148;6.950;2023-06-10T14:49:24;24.71;55.86
65188;SHT30;51775;51.148;6.950;2023-06-10T14:51:50;24.77;58.20
65188;SHT30;51775;51.148;6.950;2023-06-10T14:54:15;24.71;56.50
65188;SHT30;51775;51.148;6.950;2023-06-10T14:56:41;24.78;57.99
65188;SHT30;51775;51.148;6.950;2023-06-10T14:59:06;24.80;58.36
65188;SHT30;51775;51.148;6.950;2023-06-10T15:01:31;24.80;58.28
65188;SHT30;51775;51.148;6.950;2023-06-10T15:03:56;24.78;58.27
65188;SHT30;51775;51.148;6.950;2023-06-10T15:06:22;24.77;57.37
65188;SHT30;51775;51.148;6.950;2023-06-10T15:08:47;24.77;57.97
65188;SHT30;51775;51.148;6.950;2023-06-10T15:11:12;24.81;58.08
65188;SHT30;51775;51.148;6.950;2023-06-10T15:13:37;24.82;58.22
65188;SHT30;51775;51.148;6.950;2023-06-10T15:16:03;24.84;58.03
65188;SHT30;51775;51.148;6.950;2023-06-10T15:18:28;24.81;57.95
65188;SHT30;51775;51.148;6.950;2023-06-10T15:20:53;24.78;55.69
65188;SHT30;51775;51.148;6.950;2023-06-10T15:23:19;24.82;57.70
65188;SHT30;51775;51.148;6.950;2023-06-10T15:25:44;24.72;55.81
65188;SHT30;51775;51.148;6.950;2023-06-10T15:28:09;24.78;57.66
65188;SHT30;51775;51.148;6.950;2023-06-10T15:30:34;24.71;55.36
65188;SHT30;51775;51.148;6.950;2023-06-10T15:33:00;24.74;57.17
65188;SHT30;51775;51.148;6.950;2023-06-10T15:35:25;24.68;55.65
65188;SHT30;51775;51.148;6.950;2023-06-10T15:37:51;24.77;57.46